Time;durP1;ratioP1;P1;durP2;ratioP2;P2;SDS_P1;SDS_P2;PMS_P1;PMS_P2;Temp;Humidity;BMP_temperature;BMP_pressure;BME280_temperature;BME280_humidity;BME280_pressure;Samples;Min_cycle;Max_cycle;Signal;HPM_P1;HPM_P2
2022/02/11 00:01:10;;;;;;;54.15;32.45;;;;;;;2.54;100.00;101028.06;5013264;28;20045;-70
2022/02/11 00:08:48;;;;;;;60.28;34.55;;;;;;;2.65;100.00;101056.75;5013022;28;20496;-70
2022/02/11 00:11:15;;;;;;;58.42;35.40;;;;;;;2.26;100.00;101027.44;5011862;28;20033;-71
2022/02/11 00:13:41;;;;;;;75.38;45.75;;;;;;;2.56;100.00;101063.22;5013239;28;20091;-70
2022/02/11 00:16:06;;;;;;;73.70;44.33;;;;;;;2.08;100.00;101072.16;5013163;28;20033;-70
2022/02/11 00:18:31;;;;;;;59.08;38.05;;;;;;;1.58;100.00;101045.88;5012053;28;20389;-70
2022/02/11 00:20:57;;;;;;;48.13;31.98;;;;;;;1.67;100.00;101038.56;5011855;28;20521;-70
2022/02/11 00:23:22;;;;;;;44.95;29.63;;;;;;;1.68;100.00;101041.09;5012736;28;20492;-70
2022/02/11 00:25:58;;;;;;;42.85;28.50;;;;;;;1.97;100.00;101031.78;5012249;28;20026;-70
2022/02/11 00:33:39;;;;;;;29.15;20.58;;;;;;;1.55;100.00;101048.28;5012492;28;20069;-70
2022/02/11 00:36:10;;;;;;;27.10;19.15;;;;;;;1.82;100.00;101026.44;5011225;28;20030;-69
2022/02/11 01:02:43;;;;;;;24.88;18.33;;;;;;;1.27;100.00;101035.88;4665845;22;10000083;-70
2022/02/11 01:05:08;;;;;;;27.42;19.02;;;;;;;1.27;100.00;101004.16;5010181;28;20507;-70
2022/02/11 01:07:34;;;;;;;25.38;18.45;;;;;;;1.70;100.00;101006.91;4994637;28;20198;-70
2022/02/11 01:09:59;;;;;;;26.00;18.55;;;;;;;1.49;100.00;101031.44;5011877;28;20121;-70
2022/02/11 01:12:26;;;;;;;26.42;18.38;;;;;;;1.84;100.00;101044.00;5011888;28;20033;-69
2022/02/11 01:14:53;;;;;;;27.13;18.52;;;;;;;1.84;100.00;101009.78;5012003;28;20048;-70
2022/02/11 01:17:34;;;;;;;24.45;17.08;;;;;;;1.54;100.00;101004.00;5011772;28;20054;-70
2022/02/11 01:27:55;;;;;;;25.95;18.05;;;;;;;1.35;100.00;101000.19;5011132;28;20508;-68
2022/02/11 01:38:43;;;;;;;27.02;18.38;;;;;;;1.22;100.00;101022.38;5010980;28;20507;-68
2022/02/11 01:49:21;;;;;;;34.97;19.95;;;;;;;0.85;100.00;100983.00;5011126;28;20111;-69
2022/02/11 02:23:01;;;;;;;112.03;53.17;;;;;;;0.94;100.00;101003.28;5010927;28;20443;-69
2022/02/11 02:25:45;;;;;;;49.20;28.50;;;;;;;1.27;100.00;100971.59;4993498;28;20462;-69
2022/02/11 02:57:28;;;;;;;43.38;27.27;;;;;;;1.47;100.00;101013.03;5014687;28;20423;-70
2022/02/11 03:00:18;;;;;;;;;;;;;;;1.16;100.00;101013.06;4997047;28;20408;-69
2022/02/11 03:49:32;;;;;;;75.32;47.20;;;;;;;0.84;100.00;101002.19;4994135;28;20088;-70
2022/02/11 04:56:09;;;;;;;84.68;49.50;;;;;;;0.50;100.00;100979.53;4992755;28;20120;-70
2022/02/11 05:01:19;;;;;;;105.80;67.57;;;;;;;0.45;100.00;100988.56;4992103;28;20049;-70
2022/02/11 05:03:44;;;;;;;91.78;52.72;;;;;;;0.25;100.00;101009.63;4974944;28;20038;-69
2022/02/11 05:06:10;;;;;;;75.40;43.03;;;;;;;0.38;100.00;101016.66;4996346;28;20025;-69
2022/02/11 05:08:36;;;;;;;69.50;42.67;;;;;;;0.01;100.00;100993.88;5031236;28;20056;-69
2022/02/11 05:11:03;;;;;;;66.32;39.22;;;;;;;0.68;100.00;101011.69;5013987;28;20052;-70
2022/02/11 05:13:28;;;;;;;59.88;39.50;;;;;;;0.29;100.00;100985.56;5030863;28;20040;-68
2022/02/11 05:15:54;;;;;;;69.68;39.50;;;;;;;0.49;100.00;101009.50;5013320;28;20034;-69
2022/02/11 05:18:19;;;;;;;69.18;41.25;;;;;;;0.55;100.00;100999.66;5031326;28;20072;-69
2022/02/11 05:20:46;;;;;;;75.30;47.10;;;;;;;0.04;100.00;100993.97;5013112;28;20079;-70
2022/02/11 05:23:13;;;;;;;79.43;46.83;;;;;;;0.31;100.00;100999.81;5031253;28;20029;-70
2022/02/11 05:25:40;;;;;;;67.35;45.53;;;;;;;0.09;100.00;101014.09;5031244;28;20041;-69
2022/02/11 05:28:08;;;;;;;76.80;48.47;;;;;;;-0.06;100.00;100987.00;5023260;28;20030;-69
2022/02/11 05:30:34;;;;;;;82.03;49.63;;;;;;;0.31;100.00;101017.31;4993424;28;20195;-68
2022/02/11 05:33:00;;;;;;;93.38;59.70;;;;;;;1.04;100.00;101019.38;4993476;28;20037;-69
2022/02/11 05:35:26;;;;;;;91.63;61.15;;;;;;;-0.06;100.00;100992.84;4992752;28;20032;-68
2022/02/11 05:37:52;;;;;;;147.32;102.68;;;;;;;0.40;100.00;101024.22;4993805;28;20112;-67
2022/02/11 05:40:18;;;;;;;154.75;106.95;;;;;;;-0.05;100.00;101027.03;4987878;28;20125;-68
2022/02/11 05:42:44;;;;;;;104.30;77.95;;;;;;;-0.48;100.00;101016.47;4999497;28;20042;-69
2022/02/11 05:45:10;;;;;;;98.00;70.68;;;;;;;0.35;100.00;101020.75;4973990;28;20030;-69
2022/02/11 05:47:36;;;;;;;76.40;54.78;;;;;;;0.09;100.00;100969.97;4974198;28;20492;-68
2022/02/11 05:50:04;;;;;;;63.22;38.90;;;;;;;0.67;100.00;100995.84;4991357;28;20034;-68
2022/02/11 05:52:31;;;;;;;49.50;33.35;;;;;;;0.14;100.00;101032.59;4991142;28;20037;-69
2022/02/11 05:54:57;;;;;;;50.20;32.05;;;;;;;1.56;100.00;100993.22;4990029;28;20064;-69
2022/02/11 05:57:23;;;;;;;51.03;32.95;;;;;;;3.02;100.00;101002.25;4973978;28;20034;-69
2022/02/11 05:59:49;;;;;;;57.88;36.38;;;;;;;4.65;100.00;100992.25;4990873;28;20026;-70
2022/02/11 06:02:15;;;;;;;53.53;35.72;;;;;;;5.16;100.00;100993.69;4973734;28;20042;-67
2022/02/11 06:04:40;;;;;;;68.07;47.85;;;;;;;5.54;100.00;100998.22;4990608;28;20507;-69
2022/02/11 06:07:06;;;;;;;59.50;40.95;;;;;;;6.37;100.00;100997.19;4972306;28;20685;-69
2022/02/11 06:09:31;;;;;;;53.80;35.60;;;;;;;7.18;100.00;100985.69;4990144;28;20477;-69
2022/02/11 06:11:56;;;;;;;53.97;34.60;;;;;;;6.41;100.00;101021.63;4990417;28;20496;-69
2022/02/11 06:14:22;;;;;;;58.03;42.22;;;;;;;6.96;100.00;100993.22;4990007;28;20027;-69
2022/02/11 06:16:47;;;;;;;55.03;40.78;;;;;;;8.07;100.00;101011.03;4990208;28;20116;-69
2022/02/11 06:19:13;;;;;;;81.72;62.45;;;;;;;7.77;100.00;100999.22;4990825;28;20493;-69
2022/02/11 06:21:38;;;;;;;85.30;71.70;;;;;;;8.26;100.00;100995.00;4973078;28;20412;-69
2022/02/11 06:24:04;;;;;;;96.90;75.80;;;;;;;8.06;100.00;101027.88;4973940;28;20049;-70
2022/02/11 06:26:29;;;;;;;79.63;59.15;;;;;;;8.45;98.80;100991.56;4973788;28;20026;-69
2022/02/11 06:28:58;;;;;;;132.93;102.88;;;;;;;9.30;94.12;101020.75;4991020;28;20478;-69
2022/02/11 06:31:24;;;;;;;195.60;136.27;;;;;;;9.65;88.50;101012.88;4992721;28;20473;-69
2022/02/11 06:33:51;;;;;;;132.20;99.55;;;;;;;9.41;86.06;101023.19;4994798;28;20105;-68
2022/02/11 06:36:16;;;;;;;150.00;110.72;;;;;;;9.64;89.94;101011.22;4977140;28;20121;-69
2022/02/11 06:38:42;;;;;;;136.52;103.93;;;;;;;10.45;81.68;100976.59;4995236;28;20122;-69
2022/02/11 06:41:07;;;;;;;183.57;132.35;;;;;;;9.17;85.86;100960.78;4977235;28;20074;-69
2022/02/11 06:43:33;;;;;;;136.57;104.10;;;;;;;10.40;80.98;100986.81;4995039;28;20077;-69
2022/02/11 06:45:59;;;;;;;118.38;95.32;;;;;;;10.41;80.54;100955.47;4977304;28;20416;-69
2022/02/11 06:48:25;;;;;;;84.40;69.78;;;;;;;10.50;79.89;100956.22;4977202;28;20062;-68
2022/02/11 06:50:51;;;;;;;85.32;68.60;;;;;;;10.76;81.33;100999.94;4976867;28;20061;-68
2022/02/11 06:53:17;;;;;;;74.90;57.17;;;;;;;9.69;82.51;100996.78;4994837;28;20125;-69
2022/02/11 06:55:42;;;;;;;66.03;46.92;;;;;;;10.33;85.55;100989.44;4994344;28;20049;-69
2022/02/11 06:58:08;;;;;;;78.93;48.67;;;;;;;9.95;87.94;100968.59;4994580;28;20022;-69
2022/02/11 07:00:34;;;;;;;58.42;40.88;;;;;;;10.22;89.76;100964.13;4976763;28;20034;-69
2022/02/11 07:03:00;;;;;;;63.75;45.78;;;;;;;9.97;88.59;100957.59;4976905;28;20128;-70
2022/02/11 07:05:27;;;;;;;47.40;36.95;;;;;;;8.76;100.00;100970.31;4976729;28;20040;-69
2022/02/11 07:07:54;;;;;;;46.22;31.08;;;;;;;7.35;100.00;101015.22;4976951;28;20027;-69
2022/02/11 07:10:20;;;;;;;29.95;22.52;;;;;;;7.31;100.00;101012.69;4994175;28;20113;-69
2022/02/11 07:12:45;;;;;;;41.75;24.90;;;;;;;6.75;100.00;101007.47;4976986;28;20030;-69
2022/02/11 07:15:11;;;;;;;60.92;30.77;;;;;;;6.64;100.00;101009.94;4994221;28;20157;-69
2022/02/11 07:17:37;;;;;;;55.58;39.25;;;;;;;6.61;100.00;101004.88;4992812;28;20066;-69
2022/02/11 07:20:04;;;;;;;48.20;30.17;;;;;;;6.86;100.00;101004.13;4992597;28;20033;-70
2022/02/11 07:22:34;;;;;;;44.03;29.33;;;;;;;6.38;100.00;100998.03;4976821;28;20100;-70
2022/02/11 07:25:01;;;;;;;32.85;22.08;;;;;;;7.41;100.00;100958.72;4994006;28;20480;-70
2022/02/11 07:27:26;;;;;;;25.13;20.20;;;;;;;6.80;100.00;100990.63;4994141;28;20077;-69
2022/02/11 07:29:52;;;;;;;27.95;19.77;;;;;;;6.80;100.00;100985.56;4994239;28;20042;-68
2022/02/11 07:32:17;;;;;;;28.08;20.75;;;;;;;6.28;100.00;100963.47;4993736;28;20420;-70
2022/02/11 07:34:45;;;;;;;25.23;20.00;;;;;;;6.32;100.00;100996.28;4992330;28;20516;-70
2022/02/11 07:37:10;;;;;;;27.98;20.77;;;;;;;6.78;100.00;100988.09;4993850;28;20443;-69
2022/02/11 07:39:36;;;;;;;21.58;17.65;;;;;;;5.79;100.00;100969.84;4993740;28;20121;-69
2022/02/11 07:42:01;;;;;;;26.73;20.63;;;;;;;7.34;100.00;100962.97;4992712;28;20031;-70
2022/02/11 07:44:27;;;;;;;27.90;21.88;;;;;;;6.97;100.00;100959.50;4976270;28;20492;-69
2022/02/11 07:46:52;;;;;;;23.92;20.65;;;;;;;7.10;100.00;100982.28;4976092;28;20088;-69
2022/02/11 07:49:17;;;;;;;27.98;19.08;;;;;;;6.22;100.00;100948.28;4976134;28;20121;-69
2022/02/11 07:51:43;;;;;;;24.83;18.85;;;;;;;5.70;100.00;100995.88;4976053;28;20037;-69
2022/02/11 07:54:09;;;;;;;25.58;18.30;;;;;;;5.63;100.00;100968.03;4992108;28;20070;-70
2022/02/11 07:56:34;;;;;;;25.63;19.80;;;;;;;6.19;100.00;100979.41;4976026;28;20030;-69
2022/02/11 07:59:00;;;;;;;24.05;20.10;;;;;;;6.54;100.00;100924.84;4976125;28;20030;-69
2022/02/11 08:01:25;;;;;;;27.38;20.30;;;;;;;7.50;100.00;100972.25;4993126;28;20081;-70
2022/02/11 08:03:51;;;;;;;28.48;20.75;;;;;;;7.13;100.00;100955.31;4992110;28;20112;-70
2022/02/11 08:06:16;;;;;;;26.70;19.30;;;;;;;5.94;100.00;100970.00;4993566;28;20034;-69
2022/02/11 08:08:42;;;;;;;26.23;20.23;;;;;;;6.46;100.00;100974.50;4992044;28;20023;-69
2022/02/11 08:11:07;;;;;;;28.02;22.67;;;;;;;6.32;100.00;100963.47;4993439;28;20136;-70
2022/02/11 08:13:33;;;;;;;33.95;25.17;;;;;;;7.06;100.00;100989.03;4975808;28;20031;-68
2022/02/11 08:15:59;;;;;;;26.95;21.42;;;;;;;6.78;100.00;100956.94;4993068;28;20026;-69
2022/02/11 08:18:25;;;;;;;30.85;22.15;;;;;;;6.82;100.00;100924.09;4993081;28;20561;-70
2022/02/11 08:20:50;;;;;;;25.85;20.00;;;;;;;6.47;100.00;100957.66;4991871;28;20130;-70
2022/02/11 08:23:16;;;;;;;38.10;26.30;;;;;;;7.35;100.00;100969.69;4975641;28;20040;-69
2022/02/11 08:25:41;;;;;;;39.53;26.95;;;;;;;7.28;100.00;100927.53;4993278;28;20129;-70
2022/02/11 08:28:07;;;;;;;35.67;24.25;;;;;;;7.20;100.00;100967.16;4991621;28;20034;-69
2022/02/11 08:30:32;;;;;;;35.13;25.45;;;;;;;7.43;100.00;100959.56;4992796;28;20026;-70
2022/02/11 08:32:58;;;;;;;29.70;23.85;;;;;;;7.43;100.00;100960.41;4992737;28;20030;-69
2022/02/11 08:35:23;;;;;;;39.30;26.52;;;;;;;6.85;100.00;100962.00;4993115;28;20385;-69
2022/02/11 08:37:48;;;;;;;38.22;27.77;;;;;;;6.70;100.00;100943.44;4975180;28;20434;-69
2022/02/11 08:40:14;;;;;;;33.95;25.77;;;;;;;7.62;100.00;100936.84;4992716;28;20496;-70
2022/02/11 08:42:39;;;;;;;34.47;27.58;;;;;;;7.47;100.00;100959.59;4975249;28;20096;-70
2022/02/11 08:45:07;;;;;;;30.30;24.55;;;;;;;7.38;100.00;100928.38;4992399;28;20546;-70
2022/02/11 08:47:33;;;;;;;31.85;24.60;;;;;;;7.31;100.00;100926.72;4992575;28;20050;-70
2022/02/11 08:50:00;;;;;;;37.00;28.02;;;;;;;7.11;100.00;100961.25;4992663;28;20157;-69
2022/02/11 08:52:27;;;;;;;28.25;22.23;;;;;;;7.72;100.00;100945.25;4975054;28;20035;-70
2022/02/11 08:54:53;;;;;;;25.70;20.15;;;;;;;7.77;100.00;100926.69;4974937;28;20030;-70
2022/02/11 08:57:18;;;;;;;28.35;22.13;;;;;;;8.53;100.00;100913.81;4992473;28;20038;-70
2022/02/11 08:59:44;;;;;;;25.23;20.27;;;;;;;8.29;100.00;100922.38;4992087;28;20522;-70
2022/02/11 09:02:11;;;;;;;26.60;20.42;;;;;;;8.47;100.00;100947.63;4992040;28;20050;-69
2022/02/11 09:04:40;;;;;;;26.75;20.30;;;;;;;8.11;100.00;100946.84;4974937;28;20452;-69
2022/02/11 09:07:06;;;;;;;26.75;20.60;;;;;;;8.18;100.00;100949.38;4992295;28;20029;-69
2022/02/11 09:09:32;;;;;;;26.05;19.27;;;;;;;8.36;100.00;100898.69;4974940;28;20030;-70
2022/02/11 09:11:58;;;;;;;22.38;18.80;;;;;;;8.37;100.00;100910.50;4974710;28;20520;-70
2022/02/11 09:14:23;;;;;;;23.73;18.77;;;;;;;8.26;100.00;100909.69;4992069;28;20369;-70
2022/02/11 09:16:48;;;;;;;23.77;19.35;;;;;;;8.77;100.00;100932.25;4991866;28;20026;-70
2022/02/11 09:19:14;;;;;;;26.67;20.77;;;;;;;8.84;100.00;100932.22;4992154;28;20120;-69
2022/02/11 09:21:39;;;;;;;27.83;19.65;;;;;;;8.80;100.00;100912.81;4991999;28;20041;-70
2022/02/11 09:24:05;;;;;;;25.30;19.35;;;;;;;9.39;100.00;100928.47;4991995;28;20416;-70
2022/02/11 09:26:33;;;;;;;24.02;18.77;;;;;;;9.42;100.00;100925.94;4991783;28;20032;-68
2022/02/11 09:28:59;;;;;;;25.92;18.42;;;;;;;8.71;100.00;100906.94;4991745;28;20520;-68
2022/02/11 09:31:27;;;;;;;23.27;17.20;;;;;;;9.83;100.00;100905.22;4990175;28;20401;-69
2022/02/11 09:33:55;;;;;;;25.27;19.55;;;;;;;9.61;100.00;100899.53;4991627;28;20117;-69
2022/02/11 09:36:22;;;;;;;23.77;17.52;;;;;;;9.39;100.00;100877.72;4991596;28;20030;-69
2022/02/11 09:38:48;;;;;;;21.58;17.27;;;;;;;9.17;100.00;100879.59;4974198;28;20559;-69
2022/02/11 09:41:14;;;;;;;26.23;19.38;;;;;;;10.16;100.00;100854.13;4973858;28;20038;-69
2022/02/11 09:43:41;;;;;;;37.33;22.15;;;;;;;10.42;100.00;100887.66;4973979;28;20060;-69
2022/02/11 09:46:08;;;;;;;21.85;17.05;;;;;;;10.38;100.00;100901.25;4991604;28;20038;-69
2022/02/11 09:48:33;;;;;;;19.15;16.20;;;;;;;10.24;100.00;100898.88;4973938;28;20121;-68
2022/02/11 09:50:59;;;;;;;22.88;17.60;;;;;;;10.51;100.00;100886.69;4991669;28;20048;-69
2022/02/11 09:53:27;;;;;;;35.83;29.33;;;;;;;10.29;100.00;100860.72;4991447;28;20034;-69
2022/02/11 09:55:53;;;;;;;21.45;17.67;;;;;;;9.72;100.00;100835.97;4991364;28;20041;-69
2022/02/11 09:58:19;;;;;;;21.42;16.27;;;;;;;9.90;100.00;100856.94;4973831;28;20489;-69
2022/02/11 10:00:48;;;;;;;21.77;17.50;;;;;;;11.10;100.00;100877.34;4991105;28;20121;-69
2022/02/11 10:03:25;;;;;;;48.60;27.73;;;;;;;11.18;100.00;100883.16;4991254;28;20445;-69
2022/02/11 10:05:59;;;;;;;29.30;22.33;;;;;;;10.20;100.00;100863.38;4973279;28;20122;-69
2022/02/11 10:08:26;;;;;;;26.27;18.35;;;;;;;10.68;100.00;100877.13;4991050;28;20045;-69
2022/02/11 10:10:54;;;;;;;21.95;18.40;;;;;;;10.68;100.00;100849.16;4990998;28;20037;-69
2022/02/11 10:13:28;;;;;;;26.60;21.83;;;;;;;11.11;100.00;100851.03;4991252;28;20088;-69
2022/02/11 10:16:16;;;;;;;30.58;23.20;;;;;;;12.03;100.00;100856.19;4991399;28;20034;-69
2022/02/11 10:18:45;;;;;;;25.48;19.48;;;;;;;11.04;100.00;100825.69;4990886;28;20034;-69
2022/02/11 10:21:15;;;;;;;26.20;19.80;;;;;;;11.26;100.00;100840.59;4991159;28;20061;-69
2022/02/11 10:23:43;;;;;;;21.30;18.27;;;;;;;12.08;100.00;100841.66;4991036;28;20081;-69
2022/02/11 10:26:16;;;;;;;24.60;19.30;;;;;;;12.31;100.00;100836.06;4991269;28;20027;-69
2022/02/11 10:28:43;;;;;;;21.02;18.23;;;;;;;11.34;100.00;100827.75;4991185;28;20416;-69
2022/02/11 10:31:19;;;;;;;24.65;18.10;;;;;;;12.29;100.00;100835.25;4973552;28;20117;-69
2022/02/11 10:33:54;;;;;;;20.45;14.88;;;;;;;12.34;100.00;100830.91;4989717;28;20030;-69
2022/02/11 10:36:26;;;;;;;18.65;15.80;;;;;;;11.99;98.21;100827.38;4989642;28;20029;-69
2022/02/11 10:39:07;;;;;;;19.45;16.55;;;;;;;12.86;98.14;100819.50;4991179;28;20070;-69
2022/02/11 10:41:35;;;;;;;15.35;13.75;;;;;;;12.61;96.22;100830.31;4990917;28;20037;-69
2022/02/11 10:44:15;;;;;;;32.50;21.17;;;;;;;13.42;93.32;100807.91;4991045;28;20022;-70
2022/02/11 10:46:52;;;;;;;18.48;15.52;;;;;;;12.70;95.41;100800.31;4989643;28;20486;-70
2022/02/11 10:49:30;;;;;;;19.45;14.98;;;;;;;13.26;91.97;100819.38;4991042;28;20034;-70
2022/02/11 10:51:55;;;;;;;16.15;12.60;;;;;;;12.73;95.85;100810.47;4990857;28;20026;-69
2022/02/11 10:54:29;;;;;;;13.57;12.13;;;;;;;12.52;97.86;100810.13;4973330;28;20030;-70
2022/02/11 10:57:00;;;;;;;14.50;12.10;;;;;;;12.46;97.96;100810.25;4973165;28;20534;-70
2022/02/11 10:59:34;;;;;;;13.27;11.85;;;;;;;12.92;97.72;100759.81;4990892;28;20481;-70
2022/02/11 11:02:10;;;;;;;14.27;11.68;;;;;;;13.23;93.06;100765.00;4990789;28;20047;-70
2022/02/11 11:04:37;;;;;;;41.78;21.65;;;;;;;13.84;85.94;100758.16;4990920;28;20031;-70
2022/02/11 11:07:06;;;;;;;15.80;13.05;;;;;;;12.82;90.03;100758.34;4989490;28;20042;-69
2022/02/11 11:09:34;;;;;;;14.15;11.73;;;;;;;13.85;88.05;100769.22;4972901;28;20100;-68
2022/02/11 11:12:01;;;;;;;87.95;40.20;;;;;;;14.29;83.76;100757.72;4990796;28;20469;-70
2022/02/11 11:14:28;;;;;;;13.55;11.13;;;;;;;13.33;85.49;100748.56;4990789;28;20022;-70
2022/02/11 11:16:56;;;;;;;42.05;23.85;;;;;;;13.57;88.09;100761.50;4974965;28;20027;-69
2022/02/11 11:19:24;;;;;;;19.60;13.57;;;;;;;14.30;84.76;100759.41;4994035;28;20519;-69
2022/02/11 11:22:11;;;;;;;34.90;20.30;;;;;;;14.83;80.36;100766.22;4976379;28;20525;-70
2022/02/11 11:24:53;;;;;;;20.23;14.48;;;;;;;14.27;81.72;100759.44;4994247;28;20049;-69
2022/02/11 11:27:44;;;;;;;13.50;11.48;;;;;;;14.13;80.41;100752.19;4993796;28;20026;-69
2022/02/11 11:30:26;;;;;;;16.67;13.15;;;;;;;14.78;76.37;100717.72;4976281;28;20497;-69
2022/02/11 11:33:04;;;;;;;26.63;17.42;;;;;;;15.58;74.58;100738.00;4992697;28;20390;-69
2022/02/11 11:35:41;;;;;;;14.93;12.38;;;;;;;15.74;73.73;100738.28;4993815;28;20030;-69
2022/02/11 11:38:24;;;;;;;19.67;14.30;;;;;;;14.72;74.56;100729.88;4993894;28;20464;-69
2022/02/11 11:41:03;;;;;;;20.83;13.38;;;;;;;15.52;72.70;100729.69;4975818;28;20046;-69
2022/02/11 11:43:36;;;;;;;17.83;12.00;;;;;;;14.90;73.05;100683.19;4992524;28;20031;-69
2022/02/11 11:46:23;;;;;;;13.15;10.38;;;;;;;15.35;69.43;100724.31;4993673;28;20038;-70
2022/02/11 11:48:55;;;;;;;15.00;12.00;;;;;;;15.58;69.04;100721.78;4963428;28;20127;-68
2022/02/11 11:51:22;;;;;;;26.00;15.32;;;;;;;15.49;70.10;100676.81;4993542;28;20035;-70
2022/02/11 11:53:48;;;;;;;12.00;10.23;;;;;;;15.77;68.68;100706.56;4993606;28;20480;-70
2022/02/11 11:56:44;;;;;;;12.38;10.50;;;;;;;16.33;66.35;100710.31;4992095;28;20034;-69
2022/02/11 11:59:24;;;;;;;16.27;13.02;;;;;;;15.52;68.42;100710.03;4977447;28;20473;-70
2022/02/11 12:01:58;;;;;;;15.68;13.18;;;;;;;16.19;68.84;100707.47;4993701;28;20035;-70
2022/02/11 12:04:41;;;;;;;12.90;10.93;;;;;;;15.47;69.45;100706.78;4993509;28;20038;-71
2022/02/11 12:07:24;;;;;;;13.07;11.30;;;;;;;15.50;68.59;100662.28;4991938;28;20037;-70
2022/02/11 12:09:52;;;;;;;14.77;11.32;;;;;;;15.65;67.67;100686.50;4975440;28;20101;-70
2022/02/11 12:12:22;;;;;;;13.70;11.05;;;;;;;15.71;65.40;100648.63;4993334;28;20031;-69
2022/02/11 12:14:51;;;;;;;16.23;11.27;;;;;;;16.56;62.94;100669.19;4993297;28;20046;-70
2022/02/11 12:17:18;;;;;;;12.52;10.48;;;;;;;16.14;63.77;100637.56;4975403;28;20096;-69
2022/02/11 12:19:45;;;;;;;14.75;11.52;;;;;;;16.72;61.25;100672.78;4975590;28;20044;-70
2022/02/11 12:22:16;;;;;;;15.27;10.73;;;;;;;17.30;59.86;100664.25;4992770;28;20408;-67
2022/02/11 12:27:36;;;;;;;14.95;11.98;;;;;;;16.46;60.63;100621.66;4992428;28;20100;-70
2022/02/11 12:30:16;;;;;;;13.50;12.10;;;;;;;16.66;61.45;100655.06;4992900;28;20022;-69
2022/02/11 12:32:44;;;;;;;14.02;12.30;;;;;;;17.03;61.46;100626.09;4992546;28;20023;-69
2022/02/11 12:35:29;;;;;;;15.25;13.18;;;;;;;16.72;59.92;100661.72;4992824;28;20481;-69
2022/02/11 12:37:59;;;;;;;16.58;13.65;;;;;;;17.29;59.86;100624.00;4974961;28;20038;-69
2022/02/11 12:40:28;;;;;;;14.75;12.38;;;;;;;16.88;60.40;100632.72;4992587;28;20572;-69
2022/02/11 12:42:59;;;;;;;22.50;16.70;;;;;;;17.32;59.72;100651.31;4992611;28;20027;-69
2022/02/11 12:45:28;;;;;;;17.90;15.10;;;;;;;17.37;59.94;100656.25;4974593;28;20038;-69
2022/02/11 12:47:55;;;;;;;20.73;13.75;;;;;;;17.97;58.52;100643.16;4975197;28;20457;-70
2022/02/11 12:50:45;;;;;;;19.50;14.82;;;;;;;18.15;57.36;100655.16;4975068;28;20026;-69
2022/02/11 12:53:16;;;;;;;40.38;32.80;;;;;;;17.12;59.36;100615.38;4992484;28;20035;-70
2022/02/11 12:55:43;;;;;;;24.63;16.53;;;;;;;17.76;58.90;100651.91;4991965;28;20037;-70
2022/02/11 12:58:11;;;;;;;22.85;18.77;;;;;;;16.52;57.88;100628.31;4992321;28;20057;-70
2022/02/11 13:00:39;;;;;;;16.73;13.30;;;;;;;16.70;59.41;100615.53;4974698;28;20511;-70
2022/02/11 13:03:06;;;;;;;18.77;14.73;;;;;;;17.84;57.16;100648.06;4991929;28;20521;-70
2022/02/11 13:05:39;;;;;;;21.75;18.60;;;;;;;17.51;56.86;100612.81;4974651;28;20038;-70
2022/02/11 13:08:07;;;;;;;20.88;14.80;;;;;;;17.47;57.25;100603.53;4991846;28;20033;-69
2022/02/11 13:10:35;;;;;;;21.35;19.05;;;;;;;17.81;57.54;100631.91;4992408;28;20030;-70
2022/02/11 13:13:23;;;;;;;17.50;13.73;;;;;;;17.68;56.79;100633.41;4974658;28;20041;-69
2022/02/11 13:15:53;;;;;;;16.92;14.90;;;;;;;18.15;56.50;100607.09;4991667;28;20045;-70
2022/02/11 13:18:21;;;;;;;18.05;15.02;;;;;;;18.76;55.30;100627.22;4992040;28;20037;-70
2022/02/11 13:20:50;;;;;;;19.27;15.70;;;;;;;17.92;56.42;100635.69;4990262;28;20033;-70
2022/02/11 13:23:19;;;;;;;19.08;14.55;;;;;;;18.09;56.04;100589.38;4991885;28;20479;-69
2022/02/11 13:25:45;;;;;;;18.38;15.75;;;;;;;17.57;56.37;100627.94;4991777;28;20034;-69
2022/02/11 13:28:13;;;;;;;15.35;13.55;;;;;;;18.14;54.98;100622.63;4974315;28;20084;-70
2022/02/11 13:30:45;;;;;;;16.38;13.25;;;;;;;18.43;53.53;100591.13;4974220;28;20120;-70
2022/02/11 13:33:18;;;;;;;15.70;13.15;;;;;;;17.73;55.59;100593.69;4991414;28;20026;-70
2022/02/11 13:35:43;;;;;;;15.02;13.43;;;;;;;17.87;55.18;100591.31;4991724;28;20049;-69
2022/02/11 13:38:09;;;;;;;18.77;15.98;;;;;;;18.33;54.64;100613.06;4974174;28;20113;-70
2022/02/11 13:40:35;;;;;;;19.02;16.92;;;;;;;17.50;55.74;100609.38;4990630;28;20034;-70
2022/02/11 13:43:05;;;;;;;16.63;13.07;;;;;;;18.31;55.06;100622.59;4991761;28;20034;-70
2022/02/11 13:45:49;;;;;;;16.20;13.20;;;;;;;19.30;51.88;100582.25;4991327;28;20409;-69
2022/02/11 13:48:16;;;;;;;15.93;14.05;;;;;;;20.91;48.53;100605.66;4990232;28;20026;-70
2022/02/11 13:51:05;;;;;;;17.75;14.30;;;;;;;19.43;50.16;100609.91;4991478;28;20058;-70
2022/02/11 13:53:35;;;;;;;16.95;15.02;;;;;;;22.22;46.63;100605.09;4991423;28;20038;-70
2022/02/11 13:56:03;;;;;;;23.25;17.95;;;;;;;22.67;45.36;100617.59;4991147;28;20053;-69
2022/02/11 13:58:28;;;;;;;27.65;18.45;;;;;;;22.03;44.88;100623.59;4991387;28;20026;-69
2022/02/11 14:00:54;;;;;;;22.73;16.40;;;;;;;23.73;43.12;100610.94;4991335;28;20041;-70
2022/02/11 14:03:20;;;;;;;18.55;15.32;;;;;;;21.82;45.12;100593.91;4991365;28;20051;-70
2022/02/11 14:05:47;;;;;;;21.65;16.63;;;;;;;21.40;46.09;100619.88;4990151;28;20121;-70
2022/02/11 14:08:13;;;;;;;32.58;23.15;;;;;;;20.60;48.11;100620.41;4973658;28;20041;-70
2022/02/11 14:10:38;;;;;;;21.75;16.83;;;;;;;21.51;46.74;100617.47;4973733;28;20034;-70
2022/02/11 14:13:06;;;;;;;19.33;17.10;;;;;;;21.12;45.93;100615.56;4991140;28;20042;-70
2022/02/11 14:15:31;;;;;;;23.63;15.95;;;;;;;20.73;47.29;100620.53;4989741;28;20544;-69
2022/02/11 14:17:57;;;;;;;26.23;21.95;;;;;;;21.02;47.89;100623.97;4991163;28;20058;-68
2022/02/11 14:20:22;;;;;;;20.52;17.23;;;;;;;18.96;49.79;100601.25;4973859;28;20038;-69
2022/02/11 14:22:48;;;;;;;21.65;15.73;;;;;;;21.78;47.16;100614.88;4973581;28;20587;-69
2022/02/11 14:25:14;;;;;;;22.70;17.35;;;;;;;20.22;48.36;100596.00;4973431;28;20030;-71
2022/02/11 14:27:39;;;;;;;18.58;14.93;;;;;;;20.52;48.15;100629.56;4991003;28;20033;-70
2022/02/11 14:30:06;;;;;;;24.30;17.90;;;;;;;19.64;48.88;100638.88;4991070;28;20035;-70
2022/02/11 14:32:31;;;;;;;24.02;17.65;;;;;;;20.51;47.61;100617.53;4991284;28;20030;-70
2022/02/11 14:34:57;;;;;;;26.77;22.05;;;;;;;21.25;46.39;100603.53;4990957;28;20420;-70
2022/02/11 14:37:22;;;;;;;23.27;18.90;;;;;;;21.77;45.64;100626.97;4973599;28;20489;-70
2022/02/11 14:39:48;;;;;;;21.88;18.27;;;;;;;19.62;48.56;100604.56;4973352;28;20069;-69
2022/02/11 14:42:13;;;;;;;20.38;18.13;;;;;;;19.36;47.74;100610.31;4991097;28;20037;-70
2022/02/11 14:44:39;;;;;;;20.13;16.30;;;;;;;19.96;48.54;100596.63;4990876;28;20035;-69
2022/02/11 14:47:08;;;;;;;24.77;20.00;;;;;;;20.53;47.88;100569.19;4989742;28;20080;-70
2022/02/11 14:49:35;;;;;;;21.63;18.35;;;;;;;18.46;50.65;100588.38;4990917;28;20034;-69
2022/02/11 14:52:05;;;;;;;23.90;18.60;;;;;;;18.74;50.65;100618.72;4992958;28;20176;-70
2022/02/11 14:54:32;;;;;;;30.50;22.70;;;;;;;19.17;50.55;100589.00;4977052;28;20413;-70
2022/02/11 14:56:58;;;;;;;27.85;21.27;;;;;;;19.12;50.07;100630.47;4994656;28;20265;-68
2022/02/11 14:59:24;;;;;;;28.48;20.80;;;;;;;19.45;50.54;100633.06;4977038;28;20084;-70
2022/02/11 15:01:52;;;;;;;22.35;19.95;;;;;;;19.71;49.92;100619.53;4994374;28;20113;-70
2022/02/11 15:04:18;;;;;;;29.00;24.10;;;;;;;19.27;50.43;100606.47;4994258;28;20038;-70
2022/02/11 15:06:46;;;;;;;29.63;25.27;;;;;;;19.36;50.49;100594.84;4994316;28;20070;-69
2022/02/11 15:09:13;;;;;;;22.15;18.63;;;;;;;17.88;52.67;100574.16;4994153;28;20455;-68
2022/02/11 15:11:38;;;;;;;26.60;19.83;;;;;;;17.54;54.39;100605.78;4994315;28;20065;-69